Time;durP1;ratioP1;P1;durP2;ratioP2;P2;SDS_P1;SDS_P2;PMS_P1;PMS_P2;Temp;Humidity;BMP_temperature;BMP_pressure;BME280_temperature;BME280_humidity;BME280_pressure;Samples;Min_cycle;Max_cycle;Signal;HPM_P1;HPM_P2
2023/12/10 00:01:05;;;;;;;;;;;19.50;43.20;;;;;;5103056;27;19931;-58
2023/12/10 00:03:32;;;;;;;;;;;19.50;43.20;;;;;;5116789;27;19927;-58
2023/12/10 00:05:59;;;;;;;;;;;19.50;43.20;;;;;;5101391;28;20148;-58
2023/12/10 00:08:27;;;;;;;;;;;19.50;43.20;;;;;;5103807;28;19927;-58
2023/12/10 00:10:54;;;;;;;;;;;19.50;43.20;;;;;;5101718;27;19934;-59
2023/12/10 00:13:21;;;;;;;;;;;19.50;43.20;;;;;;5093930;28;19962;-59
2023/12/10 00:15:48;;;;;;;;;;;19.50;43.20;;;;;;5101952;27;19927;-59
2023/12/10 00:18:15;;;;;;;;;;;19.50;43.20;;;;;;5103641;27;19928;-59
2023/12/10 00:20:42;;;;;;;;;;;19.50;43.20;;;;;;5103697;27;19928;-60
2023/12/10 00:23:11;;;;;;;;;;;19.50;43.20;;;;;;5116358;27;19931;-59
2023/12/10 00:25:39;;;;;;;;;;;19.50;43.20;;;;;;5117145;27;19931;-59
2023/12/10 00:28:06;;;;;;;;;;;19.50;43.20;;;;;;5102586;28;19946;-57
2023/12/10 00:30:33;;;;;;;;;;;19.50;43.20;;;;;;5100162;28;19931;-58
2023/12/10 00:33:00;;;;;;;;;;;19.50;43.20;;;;;;5103151;28;20557;-59
2023/12/10 00:35:27;;;;;;;;;;;19.50;43.20;;;;;;5099419;28;19923;-58
2023/12/10 00:37:54;;;;;;;;;;;19.50;43.20;;;;;;5098122;27;19934;-58
2023/12/10 00:40:21;;;;;;;;;;;19.50;43.20;;;;;;5114607;27;19924;-59
2023/12/10 00:42:49;;;;;;;;;;;19.50;43.20;;;;;;5113523;27;19930;-57
2023/12/10 00:45:16;;;;;;;;;;;19.50;43.20;;;;;;5097326;28;19927;-59
2023/12/10 00:47:42;;;;;;;;;;;19.50;43.20;;;;;;5097733;28;19928;-58
2023/12/10 00:50:09;;;;;;;;;;;19.50;43.20;;;;;;5105928;28;19924;-58
2023/12/10 00:52:37;;;;;;;;;;;19.50;43.20;;;;;;5106435;27;19928;-58
2023/12/10 00:55:04;;;;;;;;;;;19.50;43.20;;;;;;5116363;27;19930;-58
2023/12/10 00:57:31;;;;;;;;;;;19.50;43.20;;;;;;5097733;27;19924;-58
2023/12/10 00:59:59;;;;;;;;;;;19.50;43.20;;;;;;5103903;27;19932;-59
2023/12/10 01:02:26;;;;;;;;;;;19.50;43.20;;;;;;5102864;28;19988;-58
2023/12/10 01:04:53;;;;;;;;;;;19.50;43.20;;;;;;5118977;27;19927;-58
2023/12/10 01:07:20;;;;;;;;;;;19.50;43.20;;;;;;5100027;27;19924;-59
2023/12/10 01:09:47;;;;;;;;;;;19.50;43.20;;;;;;5118335;27;19924;-59
2023/12/10 01:12:13;;;;;;;;;;;19.50;43.20;;;;;;5108571;27;19943;-57
2023/12/10 01:14:40;;;;;;;;;;;19.50;43.20;;;;;;5112623;27;19923;-59
2023/12/10 01:17:09;;;;;;;;;;;19.50;43.20;;;;;;5117412;27;19966;-58
2023/12/10 01:19:35;;;;;;;;;;;19.50;43.20;;;;;;5103563;28;19957;-58
2023/12/10 01:22:02;;;;;;;;;;;19.50;43.20;;;;;;5108389;27;20444;-58
2023/12/10 01:24:29;;;;;;;;;;;19.50;43.20;;;;;;5105945;28;19934;-58
2023/12/10 01:26:56;;;;;;;;;;;19.50;43.20;;;;;;5102488;28;19924;-58
2023/12/10 01:29:24;;;;;;;;;;;19.50;43.20;;;;;;5103838;27;19927;-59
2023/12/10 01:31:51;;;;;;;;;;;19.50;43.20;;;;;;5110930;27;19924;-58
2023/12/10 01:34:19;;;;;;;;;;;19.50;43.20;;;;;;5102049;27;19931;-59
2023/12/10 01:36:46;;;;;;;;;;;19.50;43.20;;;;;;5110531;27;19919;-59
2023/12/10 01:39:14;;;;;;;;;;;19.50;43.20;;;;;;5109778;27;19935;-58
2023/12/10 01:41:41;;;;;;;;;;;19.50;43.20;;;;;;5099344;27;19924;-59
2023/12/10 01:44:09;;;;;;;;;;;19.50;43.20;;;;;;5106891;27;19923;-59
2023/12/10 01:46:36;;;;;;;;;;;19.50;43.20;;;;;;5101113;28;19955;-58
2023/12/10 01:49:03;;;;;;;;;;;19.50;43.20;;;;;;5112054;27;19927;-60
2023/12/10 01:51:31;;;;;;;;;;;19.50;43.20;;;;;;5107088;27;19924;-58
2023/12/10 01:53:58;;;;;;;;;;;19.50;43.20;;;;;;5099641;28;19938;-58
2023/12/10 01:56:25;;;;;;;;;;;19.50;43.20;;;;;;5103090;28;19923;-58
2023/12/10 01:58:51;;;;;;;;;;;19.50;43.20;;;;;;5099523;28;19924;-59
2023/12/10 02:01:18;;;;;;;;;;;19.50;43.20;;;;;;5109985;28;19924;-57
2023/12/10 02:03:45;;;;;;;;;;;19.50;43.20;;;;;;5096036;28;19931;-58
2023/12/10 02:06:12;;;;;;;;;;;19.40;43.10;;;;;;5097843;28;19934;-58
2023/12/10 02:08:41;;;;;;;;;;;19.50;43.20;;;;;;5109450;28;20027;-58
2023/12/10 02:11:08;;;;;;;;;;;19.50;43.20;;;;;;5099584;28;19923;-57
2023/12/10 02:13:35;;;;;;;;;;;19.50;43.20;;;;;;5101491;28;19924;-57
2023/12/10 02:16:01;;;;;;;;;;;19.40;43.10;;;;;;5104645;28;19938;-58
2023/12/10 02:18:28;;;;;;;;;;;19.50;43.20;;;;;;5100862;28;19923;-57
2023/12/10 02:20:55;;;;;;;;;;;19.50;43.20;;;;;;5093879;28;20193;-57
2023/12/10 02:23:26;;;;;;;;;;;19.40;43.10;;;;;;5100856;28;19924;-57
2023/12/10 02:25:54;;;;;;;;;;;19.50;43.20;;;;;;5088953;28;19931;-56
2023/12/10 02:28:22;;;;;;;;;;;19.40;43.10;;;;;;5108562;28;19923;-58
2023/12/10 02:30:49;;;;;;;;;;;19.50;43.20;;;;;;5098612;28;20023;-57
2023/12/10 02:33:15;;;;;;;;;;;19.40;43.10;;;;;;5110473;28;20020;-58
2023/12/10 02:35:42;;;;;;;;;;;19.50;43.20;;;;;;5097846;28;19924;-58
2023/12/10 02:38:09;;;;;;;;;;;19.40;43.10;;;;;;5090443;28;19924;-58
2023/12/10 02:40:36;;;;;;;;;;;19.40;43.10;;;;;;5095391;28;20554;-58
2023/12/10 02:43:04;;;;;;;;;;;19.40;43.10;;;;;;5109076;28;19924;-57
2023/12/10 02:45:31;;;;;;;;;;;19.40;43.10;;;;;;5110610;28;19923;-57
2023/12/10 02:47:58;;;;;;;;;;;19.40;43.10;;;;;;5102224;28;19931;-57
2023/12/10 02:50:24;;;;;;;;;;;19.40;43.10;;;;;;5110667;28;20085;-57
2023/12/10 02:52:51;;;;;;;;;;;19.40;43.10;;;;;;5098599;28;19930;-57
2023/12/10 02:55:18;;;;;;;;;;;19.40;43.10;;;;;;5100142;28;19927;-58
2023/12/10 02:57:45;;;;;;;;;;;19.40;43.10;;;;;;5102936;28;19928;-57
2023/12/10 03:00:15;;;;;;;;;;;19.40;43.10;;;;;;5093001;28;19943;-59
2023/12/10 03:02:42;;;;;;;;;;;19.40;43.10;;;;;;5100333;28;19928;-58
2023/12/10 03:05:09;;;;;;;;;;;19.40;43.10;;;;;;5105696;28;19932;-57
2023/12/10 03:07:36;;;;;;;;;;;19.40;43.10;;;;;;5105481;28;19928;-58
2023/12/10 03:10:02;;;;;;;;;;;19.40;43.10;;;;;;5101306;28;20320;-58
2023/12/10 03:12:29;;;;;;;;;;;19.40;43.10;;;;;;5114030;28;19958;-57
2023/12/10 03:14:56;;;;;;;;;;;19.40;43.10;;;;;;5105168;28;19924;-58
2023/12/10 03:17:24;;;;;;;;;;;19.40;43.10;;;;;;5099512;28;19924;-57
2023/12/10 03:19:51;;;;;;;;;;;19.40;43.10;;;;;;5114650;28;19931;-58
2023/12/10 03:22:18;;;;;;;;;;;19.40;43.10;;;;;;5097182;28;19974;-57
2023/12/10 03:24:45;;;;;;;;;;;19.40;43.10;;;;;;5113560;28;19934;-57
2023/12/10 03:27:11;;;;;;;;;;;19.40;43.10;;;;;;5089867;28;19943;-57
2023/12/10 03:29:38;;;;;;;;;;;19.40;43.10;;;;;;5099619;27;19928;-57
2023/12/10 03:32:05;;;;;;;;;;;19.40;43.10;;;;;;5095092;28;19935;-57
2023/12/10 03:34:34;;;;;;;;;;;19.40;43.20;;;;;;5095206;28;19932;-57
2023/12/10 03:37:01;;;;;;;;;;;19.40;43.10;;;;;;5096237;28;19938;-58
2023/12/10 03:39:28;;;;;;;;;;;19.40;43.10;;;;;;5105666;28;19927;-58
2023/12/10 03:41:54;;;;;;;;;;;19.40;43.20;;;;;;5100984;28;19923;-57
2023/12/10 03:44:21;;;;;;;;;;;19.40;43.20;;;;;;5106132;28;19931;-57
2023/12/10 03:46:48;;;;;;;;;;;19.40;43.20;;;;;;5091891;28;20096;-57
2023/12/10 03:49:15;;;;;;;;;;;19.40;43.20;;;;;;5113295;28;19967;-58
2023/12/10 03:51:43;;;;;;;;;;;19.40;43.20;;;;;;5094319;28;19935;-58
2023/12/10 03:54:10;;;;;;;;;;;19.40;43.20;;;;;;5094166;28;19939;-57
2023/12/10 03:56:36;;;;;;;;;;;19.40;43.20;;;;;;5112746;28;19927;-58
2023/12/10 03:59:03;;;;;;;;;;;19.40;43.20;;;;;;5093264;28;19923;-57
2023/12/10 04:01:30;;;;;;;;;;;19.40;43.20;;;;;;5093834;28;19930;-57
2023/12/10 04:03:57;;;;;;;;;;;19.40;43.20;;;;;;5101178;28;19942;-58
2023/12/10 04:06:24;;;;;;;;;;;19.40;43.20;;;;;;5109478;28;19931;-58
2023/12/10 04:08:53;;;;;;;;;;;19.40;43.20;;;;;;5091475;28;19927;-58
2023/12/10 04:11:23;;;;;;;;;;;19.40;43.20;;;;;;5109411;28;19981;-57
2023/12/10 04:13:50;;;;;;;;;;;19.40;43.30;;;;;;5095100;28;19924;-57
2023/12/10 04:16:24;;;;;;;;;;;19.40;43.30;;;;;;5092525;28;19945;-58
2023/12/10 04:18:50;;;;;;;;;;;19.40;43.30;;;;;;5112364;28;19923;-58
2023/12/10 04:21:18;;;;;;;;;;;19.40;43.30;;;;;;5099311;28;19923;-57
2023/12/10 04:23:45;;;;;;;;;;;19.40;43.30;;;;;;5111732;28;19928;-59
2023/12/10 04:26:13;;;;;;;;;;;19.40;43.30;;;;;;5096889;28;19928;-57
2023/12/10 04:28:40;;;;;;;;;;;19.40;43.30;;;;;;5108960;28;19930;-57
2023/12/10 04:31:07;;;;;;;;;;;19.40;43.30;;;;;;5112381;28;19935;-58
2023/12/10 04:33:34;;;;;;;;;;;19.40;43.30;;;;;;5112798;28;19924;-58
2023/12/10 04:36:01;;;;;;;;;;;19.40;43.30;;;;;;5102561;28;20005;-58
2023/12/10 04:38:28;;;;;;;;;;;19.40;43.30;;;;;;5100075;28;19931;-58
2023/12/10 04:40:55;;;;;;;;;;;19.40;43.30;;;;;;5100340;28;19931;-58
2023/12/10 04:43:23;;;;;;;;;;;19.40;43.30;;;;;;5095164;28;19924;-58
2023/12/10 04:45:50;;;;;;;;;;;19.40;43.30;;;;;;5032671;28;1860955;-57
2023/12/10 04:48:17;;;;;;;;;;;19.40;43.30;;;;;;5105055;27;20562;-58
2023/12/10 04:50:43;;;;;;;;;;;19.40;43.30;;;;;;5114699;27;19935;-57
2023/12/10 04:53:10;;;;;;;;;;;19.40;43.40;;;;;;5104858;27;19932;-58
2023/12/10 04:55:37;;;;;;;;;;;19.40;43.30;;;;;;5084730;27;19928;-59
2023/12/10 04:58:04;;;;;;;;;;;19.40;43.40;;;;;;5120242;27;19923;-57
2023/12/10 05:00:32;;;;;;;;;;;19.40;43.40;;;;;;5107606;27;19928;-59
2023/12/10 05:02:59;;;;;;;;;;;19.40;43.40;;;;;;5106921;27;19934;-59
2023/12/10 05:05:26;;;;;;;;;;;19.40;43.40;;;;;;5118741;27;19938;-59
2023/12/10 05:07:53;;;;;;;;;;;19.40;43.40;;;;;;5124262;27;19972;-58
2023/12/10 05:10:21;;;;;;;;;;;19.40;43.40;;;;;;5118788;27;19953;-59
2023/12/10 05:12:48;;;;;;;;;;;19.40;43.40;;;;;;5100447;27;19928;-58
2023/12/10 05:15:15;;;;;;;;;;;19.40;43.40;;;;;;5114227;27;19939;-58
2023/12/10 05:17:43;;;;;;;;;;;19.40;43.40;;;;;;5112294;27;19924;-58
2023/12/10 05:20:11;;;;;;;;;;;19.40;43.40;;;;;;5103679;28;19923;-58
2023/12/10 05:22:37;;;;;;;;;;;19.40;43.40;;;;;;5105663;27;19938;-59
2023/12/10 05:25:04;;;;;;;;;;;19.40;43.40;;;;;;5114086;27;19938;-58
2023/12/10 05:27:32;;;;;;;;;;;19.40;43.40;;;;;;5108102;27;19927;-58
2023/12/10 05:29:59;;;;;;;;;;;19.40;43.40;;;;;;5103072;27;19923;-58
2023/12/10 05:32:26;;;;;;;;;;;19.40;43.40;;;;;;5104016;28;19928;-59
2023/12/10 05:34:55;;;;;;;;;;;19.40;43.40;;;;;;5106107;27;19928;-58
2023/12/10 05:37:21;;;;;;;;;;;19.40;43.40;;;;;;5104964;27;19931;-57
2023/12/10 05:39:48;;;;;;;;;;;19.40;43.40;;;;;;5107618;28;19924;-58
2023/12/10 05:42:15;;;;;;;;;;;19.40;43.40;;;;;;5103922;27;19930;-58
2023/12/10 05:44:42;;;;;;;;;;;19.40;43.50;;;;;;5113011;27;19938;-58
2023/12/10 05:47:09;;;;;;;;;;;19.40;43.40;;;;;;5091899;28;19923;-58
2023/12/10 05:49:35;;;;;;;;;;;19.40;43.40;;;;;;5096070;27;20377;-59
2023/12/10 05:52:04;;;;;;;;;;;19.40;43.40;;;;;;5101087;27;19949;-58
2023/12/10 05:54:31;;;;;;;;;;;19.40;43.40;;;;;;5112451;27;20512;-57
2023/12/10 05:56:57;;;;;;;;;;;19.40;43.40;;;;;;5100710;28;19931;-58
2023/12/10 05:59:24;;;;;;;;;;;19.40;43.50;;;;;;5102646;28;19931;-58
2023/12/10 06:01:51;;;;;;;;;;;19.40;43.40;;;;;;5095757;28;20250;-58
2023/12/10 06:04:18;;;;;;;;;;;19.40;43.50;;;;;;5106471;27;19923;-58
2023/12/10 06:06:45;;;;;;;;;;;19.40;43.50;;;;;;5103874;27;19928;-59
2023/12/10 06:09:14;;;;;;;;;;;19.40;43.50;;;;;;5114839;27;19924;-58
2023/12/10 06:11:41;;;;;;;;;;;19.40;43.50;;;;;;5100674;28;19936;-57
2023/12/10 06:14:07;;;;;;;;;;;19.40;43.50;;;;;;5098539;28;19928;-58
2023/12/10 06:16:34;;;;;;;;;;;19.40;43.50;;;;;;5102828;28;19930;-58
2023/12/10 06:19:01;;;;;;;;;;;19.40;43.50;;;;;;5101967;28;19932;-58
2023/12/10 06:21:28;;;;;;;;;;;19.40;43.50;;;;;;5103493;28;19971;-58
2023/12/10 06:23:55;;;;;;;;;;;19.40;43.50;;;;;;5101020;28;19992;-58
2023/12/10 06:26:23;;;;;;;;;;;19.40;43.50;;;;;;5113904;27;19924;-57
2023/12/10 06:28:50;;;;;;;;;;;19.40;43.50;;;;;;5102586;28;19930;-59
2023/12/10 06:31:16;;;;;;;;;;;19.40;43.50;;;;;;5100623;28;19928;-60
2023/12/10 06:33:44;;;;;;;;;;;19.40;43.50;;;;;;5099578;28;19964;-58
2023/12/10 06:36:11;;;;;;;;;;;19.40;43.50;;;;;;5098618;28;19931;-58
2023/12/10 06:38:38;;;;;;;;;;;19.40;43.50;;;;;;5108563;28;19927;-58
2023/12/10 06:41:05;;;;;;;;;;;19.40;43.50;;;;;;5113905;28;19924;-59
2023/12/10 06:43:34;;;;;;;;;;;19.40;43.50;;;;;;5121268;28;20019;-57
2023/12/10 06:46:00;;;;;;;;;;;19.40;43.50;;;;;;5104366;28;19933;-59
2023/12/10 06:48:27;;;;;;;;;;;19.40;43.50;;;;;;5097893;28;19934;-58
2023/12/10 06:50:54;;;;;;;;;;;19.40;43.50;;;;;;5101672;28;19927;-60
2023/12/10 06:53:22;;;;;;;;;;;19.40;43.50;;;;;;5112947;28;19924;-58
2023/12/10 06:55:49;;;;;;;;;;;19.40;43.50;;;;;;5104820;28;19964;-58
2023/12/10 06:58:16;;;;;;;;;;;19.40;43.50;;;;;;5100468;28;19928;-58
2023/12/10 07:00:44;;;;;;;;;;;19.40;43.50;;;;;;5105894;28;19928;-58
2023/12/10 07:03:11;;;;;;;;;;;19.40;43.50;;;;;;5120889;28;20351;-58
2023/12/10 07:05:38;;;;;;;;;;;19.40;43.50;;;;;;5107412;28;19927;-59
2023/12/10 07:08:05;;;;;;;;;;;19.40;43.50;;;;;;5087634;28;19938;-58
2023/12/10 07:10:31;;;;;;;;;;;19.40;43.60;;;;;;5096303;28;19930;-58
2023/12/10 07:12:59;;;;;;;;;;;19.40;43.60;;;;;;5098271;28;19939;-58
2023/12/10 07:15:26;;;;;;;;;;;19.40;43.60;;;;;;5098391;28;20223;-58
2023/12/10 07:17:54;;;;;;;;;;;19.40;43.60;;;;;;5101175;28;19931;-58
2023/12/10 07:20:21;;;;;;;;;;;19.40;43.60;;;;;;5116325;28;19939;-58
2023/12/10 07:22:47;;;;;;;;;;;19.40;43.60;;;;;;5097648;28;19930;-58
2023/12/10 07:25:14;;;;;;;;;;;19.40;43.60;;;;;;5092176;28;19928;-58
2023/12/10 07:27:41;;;;;;;;;;;19.40;43.60;;;;;;5099577;28;19932;-58
2023/12/10 07:30:08;;;;;;;;;;;19.40;43.60;;;;;;5111590;28;19927;-58
2023/12/10 07:32:35;;;;;;;;;;;19.40;43.60;;;;;;5093474;28;19928;-58
2023/12/10 07:35:04;;;;;;;;;;;19.40;43.60;;;;;;5098431;28;19928;-59
2023/12/10 07:37:31;;;;;;;;;;;19.40;43.60;;;;;;5095998;28;19931;-60
2023/12/10 07:39:58;;;;;;;;;;;19.40;43.60;;;;;;5117360;27;19927;-58
2023/12/10 07:42:25;;;;;;;;;;;19.40;43.60;;;;;;5104897;27;20023;-58
2023/12/10 07:44:51;;;;;;;;;;;19.40;43.60;;;;;;5106145;27;20005;-58
2023/12/10 07:47:18;;;;;;;;;;;19.40;43.60;;;;;;5115519;27;19934;-58
2023/12/10 07:49:45;;;;;;;;;;;19.40;43.60;;;;;;5121195;27;19957;-59
2023/12/10 07:52:13;;;;;;;;;;;19.40;43.60;;;;;;5104155;28;19924;-58
2023/12/10 07:54:40;;;;;;;;;;;19.40;43.60;;;;;;5107276;27;19927;-59
2023/12/10 07:57:07;;;;;;;;;;;19.40;43.60;;;;;;5102013;27;19923;-58
2023/12/10 07:59:34;;;;;;;;;;;19.40;43.70;;;;;;5097138;27;19923;-58
2023/12/10 08:02:01;;;;;;;;;;;19.40;43.70;;;;;;5120195;27;19923;-59
2023/12/10 08:04:27;;;;;;;;;;;19.40;43.70;;;;;;5109480;27;19924;-58
2023/12/10 08:06:54;;;;;;;;;;;19.40;43.70;;;;;;5104963;28;20289;-57
2023/12/10 08:09:23;;;;;;;;;;;19.40;43.60;;;;;;5100045;28;20019;-58
2023/12/10 08:11:49;;;;;;;;;;;19.40;43.60;;;;;;5122726;27;19924;-59
2023/12/10 08:14:16;;;;;;;;;;;19.40;43.60;;;;;;5100968;27;19930;-58
2023/12/10 08:16:43;;;;;;;;;;;19.40;43.70;;;;;;5121579;27;19943;-59
2023/12/10 08:19:10;;;;;;;;;;;19.40;43.70;;;;;;5108560;27;20256;-58
2023/12/10 08:21:37;;;;;;;;;;;19.40;43.70;;;;;;5105768;28;19934;-59
2023/12/10 08:24:04;;;;;;;;;;;19.40;43.70;;;;;;5108462;27;19931;-58
2023/12/10 08:26:32;;;;;;;;;;;19.30;43.60;;;;;;5108330;27;19923;-58
2023/12/10 08:28:59;;;;;;;;;;;19.40;43.70;;;;;;5105335;27;19928;-59
2023/12/10 08:31:25;;;;;;;;;;;19.40;43.70;;;;;;5111404;27;19923;-59
2023/12/10 08:33:52;;;;;;;;;;;19.40;43.70;;;;;;5108635;27;19972;-57
2023/12/10 08:36:19;;;;;;;;;;;19.40;43.70;;;;;;5122021;27;19923;-57
2023/12/10 08:38:46;;;;;;;;;;;19.40;43.70;;;;;;5108587;27;19923;-59
2023/12/10 08:41:13;;;;;;;;;;;19.40;43.70;;;;;;5128129;27;19927;-58
2023/12/10 08:43:41;;;;;;;;;;;19.40;43.70;;;;;;5110758;27;19923;-58
2023/12/10 08:46:08;;;;;;;;;;;19.40;43.70;;;;;;5123204;27;19931;-58
2023/12/10 08:48:35;;;;;;;;;;;19.40;43.80;;;;;;5110333;27;19923;-59
2023/12/10 08:51:03;;;;;;;;;;;19.40;43.70;;;;;;5121357;27;19931;-58
2023/12/10 08:53:30;;;;;;;;;;;19.40;43.70;;;;;;5100912;27;19923;-59
2023/12/10 08:55:57;;;;;;;;;;;19.40;43.70;;;;;;5101934;27;19930;-59
2023/12/10 08:58:24;;;;;;;;;;;19.40;43.80;;;;;;5099260;27;20406;-59
2023/12/10 09:00:52;;;;;;;;;;;19.40;43.80;;;;;;5100645;28;20381;-59
2023/12/10 09:03:19;;;;;;;;;;;19.40;43.80;;;;;;5096785;27;19931;-59
2023/12/10 09:05:45;;;;;;;;;;;19.40;43.80;;;;;;5096643;28;19924;-58
2023/12/10 09:08:12;;;;;;;;;;;19.40;43.80;;;;;;5108463;27;19974;-58
2023/12/10 09:10:39;;;;;;;;;;;19.40;43.80;;;;;;5113246;27;19927;-57
2023/12/10 09:13:06;;;;;;;;;;;19.40;43.80;;;;;;5114065;27;19955;-58
2023/12/10 09:15:33;;;;;;;;;;;19.40;43.80;;;;;;5114269;27;19946;-58
2023/12/10 09:18:02;;;;;;;;;;;19.40;43.80;;;;;;5099418;27;19929;-59
2023/12/10 09:20:29;;;;;;;;;;;19.40;43.80;;;;;;5114367;27;19955;-58
2023/12/10 09:22:55;;;;;;;;;;;19.40;43.80;;;;;;5099824;28;19931;-58
2023/12/10 09:25:22;;;;;;;;;;;19.40;43.80;;;;;;5103101;28;19924;-58
2023/12/10 09:27:49;;;;;;;;;;;19.40;43.80;;;;;;5103781;28;19942;-58
2023/12/10 09:30:16;;;;;;;;;;;19.40;43.80;;;;;;5100002;27;19934;-58
2023/12/10 09:32:42;;;;;;;;;;;19.40;43.80;;;;;;5097188;28;19930;-59
2023/12/10 09:35:11;;;;;;;;;;;19.40;43.80;;;;;;5113996;27;19928;-59
2023/12/10 09:37:38;;;;;;;;;;;19.40;43.80;;;;;;5099559;27;19942;-58
2023/12/10 09:40:05;;;;;;;;;;;19.40;43.80;;;;;;5093939;28;19961;-59
2023/12/10 09:42:32;;;;;;;;;;;19.40;43.80;;;;;;5098044;27;19927;-59
2023/12/10 09:44:59;;;;;;;;;;;19.40;43.80;;;;;;5118433;27;19949;-59
2023/12/10 09:47:26;;;;;;;;;;;19.40;43.80;;;;;;5121368;27;19930;-59
2023/12/10 09:49:53;;;;;;;;;;;19.40;43.80;;;;;;5102568;27;19928;-60
2023/12/10 09:52:21;;;;;;;;;;;19.40;43.90;;;;;;5118561;27;19928;-59
2023/12/10 09:54:48;;;;;;;;;;;19.40;43.80;;;;;;5102845;27;19924;-59
2023/12/10 09:57:15;;;;;;;;;;;19.40;43.80;;;;;;5120023;27;19920;-59
2023/12/10 09:59:42;;;;;;;;;;;19.40;43.80;;;;;;5104577;28;19930;-58
2023/12/10 10:02:10;;;;;;;;;;;19.40;43.80;;;;;;5100413;27;19932;-59
2023/12/10 10:04:39;;;;;;;;;;;19.40;43.80;;;;;;5097570;28;19970;-60
2023/12/10 10:07:06;;;;;;;;;;;19.40;43.70;;;;;;5109107;27;20239;-59
2023/12/10 10:09:35;;;;;;;;;;;19.40;43.70;;;;;;5100167;27;19924;-58
2023/12/10 10:12:02;;;;;;;;;;;19.40;43.60;;;;;;5113738;27;19938;-59
2023/12/10 10:14:29;;;;;;;;;;;19.40;43.60;;;;;;5124311;27;19927;-58
2023/12/10 10:16:55;;;;;;;;;;;19.40;43.60;;;;;;5103789;27;19930;-59
2023/12/10 10:19:22;;;;;;;;;;;19.40;43.60;;;;;;5099331;27;19942;-58
2023/12/10 10:21:50;;;;;;;;;;;19.40;43.60;;;;;;5101187;28;19928;-59
2023/12/10 10:24:16;;;;;;;;;;;19.40;43.50;;;;;;5104688;27;19932;-58
2023/12/10 10:26:45;;;;;;;;;;;19.40;43.50;;;;;;5104657;27;19934;-58
2023/12/10 10:29:12;;;;;;;;;;;19.40;43.60;;;;;;5102512;27;19959;-58
2023/12/10 10:31:38;;;;;;;;;;;19.40;43.50;;;;;;5095206;28;19939;-59
2023/12/10 10:34:05;;;;;;;;;;;19.40;43.50;;;;;;5116224;27;19923;-59
2023/12/10 10:36:32;;;;;;;;;;;19.40;43.50;;;;;;5099467;28;19924;-56
2023/12/10 10:38:59;;;;;;;;;;;19.40;43.50;;;;;;5120354;27;19939;-60
2023/12/10 10:41:26;;;;;;;;;;;19.40;43.50;;;;;;5103814;28;19923;-60
2023/12/10 10:43:56;;;;;;;;;;;19.40;43.50;;;;;;5102785;28;20011;-59
2023/12/10 10:46:23;;;;;;;;;;;19.40;43.50;;;;;;5093718;28;19947;-58
2023/12/10 10:48:51;;;;;;;;;;;19.40;43.50;;;;;;5108719;28;19932;-58
2023/12/10 10:51:18;;;;;;;;;;;19.40;43.50;;;;;;5111259;28;19928;-55
2023/12/10 10:53:45;;;;;;;;;;;19.40;43.60;;;;;;5098950;28;20001;-49
2023/12/10 10:56:12;;;;;;;;;;;19.30;43.40;;;;;;5106455;28;19923;-51
2023/12/10 10:58:40;;;;;;;;;;;19.20;43.40;;;;;;5118049;28;19928;-53
2023/12/10 11:01:08;;;;;;;;;;;19.10;43.40;;;;;;5111232;28;19924;-50
2023/12/10 11:03:35;;;;;;;;;;;19.00;43.70;;;;;;5104764;28;19923;-48
2023/12/10 11:06:02;;;;;;;;;;;18.90;43.90;;;;;;5098143;28;19934;-59
2023/12/10 11:08:29;;;;;;;;;;;18.70;44.00;;;;;;5105991;28;19938;-58
2023/12/10 11:10:56;;;;;;;;;;;18.70;44.10;;;;;;5105479;28;20427;-58
2023/12/10 11:13:38;;;;;;;;;;;18.60;44.10;;;;;;5096783;28;19931;-58
2023/12/10 11:16:05;;;;;;;;;;;18.60;44.10;;;;;;5111486;27;19923;-58
2023/12/10 11:18:36;;;;;;;;;;;18.60;44.10;;;;;;5115943;27;19924;-59
2023/12/10 11:21:03;;;;;;;;;;;18.60;44.10;;;;;;5098612;28;19931;-58
2023/12/10 11:23:29;;;;;;;;;;;18.70;44.10;;;;;;5098151;28;19928;-59
2023/12/10 11:25:56;;;;;;;;;;;18.70;44.00;;;;;;5099250;28;19923;-59
2023/12/10 11:28:24;;;;;;;;;;;18.70;43.90;;;;;;5097410;28;19924;-59
2023/12/10 11:30:51;;;;;;;;;;;18.70;43.90;;;;;;5097209;27;19928;-58
2023/12/10 11:33:17;;;;;;;;;;;18.70;43.80;;;;;;5101309;28;19946;-58
2023/12/10 11:35:46;;;;;;;;;;;18.80;43.90;;;;;;5101796;27;19924;-58
2023/12/10 11:38:13;;;;;;;;;;;18.80;43.80;;;;;;5102698;27;20266;-58
2023/12/10 11:40:41;;;;;;;;;;;18.80;43.80;;;;;;5120294;27;19940;-58
2023/12/10 11:43:08;;;;;;;;;;;18.80;43.70;;;;;;5113401;28;19924;-58
2023/12/10 11:45:35;;;;;;;;;;;18.90;43.80;;;;;;5099810;28;19923;-58
2023/12/10 11:48:04;;;;;;;;;;;18.90;43.80;;;;;;5114551;27;19927;-58
2023/12/10 11:50:31;;;;;;;;;;;18.90;43.80;;;;;;5109644;28;19928;-58
2023/12/10 11:52:59;;;;;;;;;;;18.90;43.80;;;;;;5115136;27;19927;-58
2023/12/10 11:55:26;;;;;;;;;;;19.00;43.80;;;;;;5121180;27;19935;-58
2023/12/10 11:57:53;;;;;;;;;;;18.90;43.70;;;;;;5099423;27;19928;-58
2023/12/10 12:00:20;;;;;;;;;;;19.00;43.80;;;;;;5111111;27;20138;-58
2023/12/10 12:02:47;;;;;;;;;;;19.00;43.80;;;;;;5114630;27;20014;-58
2023/12/10 12:05:14;;;;;;;;;;;19.00;43.80;;;;;;5113563;28;19939;-59
2023/12/10 12:07:41;;;;;;;;;;;19.00;43.80;;;;;;5107478;28;19934;-58
2023/12/10 12:10:10;;;;;;;;;;;19.00;43.80;;;;;;5113792;28;19931;-58
2023/12/10 12:12:37;;;;;;;;;;;19.00;43.80;;;;;;5095360;28;19932;-57
2023/12/10 12:15:04;;;;;;;;;;;19.10;43.80;;;;;;5114209;27;19930;-57
2023/12/10 12:17:31;;;;;;;;;;;19.00;43.80;;;;;;5102443;28;19931;-57
2023/12/10 12:20:12;;;;;;;;;;;19.00;43.80;;;;;;5100580;28;19924;-58
2023/12/10 12:22:39;;;;;;;;;;;19.10;43.80;;;;;;5094615;28;19947;-58
2023/12/10 12:25:07;;;;;;;;;;;19.10;43.80;;;;;;5096447;27;19923;-58
2023/12/10 12:27:35;;;;;;;;;;;19.10;43.80;;;;;;5115254;27;19931;-57
2023/12/10 12:30:02;;;;;;;;;;;19.10;43.80;;;;;;5097962;28;19927;-57
2023/12/10 12:32:29;;;;;;;;;;;19.10;43.80;;;;;;5117763;27;19934;-58
2023/12/10 12:34:56;;;;;;;;;;;19.10;43.80;;;;;;5099112;28;19923;-58
2023/12/10 12:37:23;;;;;;;;;;;19.10;43.80;;;;;;5102127;28;19993;-58
2023/12/10 12:39:49;;;;;;;;;;;19.10;43.80;;;;;;5114998;27;19926;-58
2023/12/10 12:42:16;;;;;;;;;;;19.10;43.90;;;;;;5104738;28;19931;-59
2023/12/10 12:44:44;;;;;;;;;;;19.10;44.50;;;;;;5104371;28;19934;-59
2023/12/10 12:47:11;;;;;;;;;;;19.20;44.10;;;;;;5116350;27;19932;-60
2023/12/10 12:49:38;;;;;;;;;;;19.20;44.10;;;;;;5097606;28;19923;-59
2023/12/10 12:52:07;;;;;;;;;;;19.20;44.10;;;;;;5095308;28;19924;-59
2023/12/10 12:54:34;;;;;;;;;;;19.20;44.20;;;;;;5093944;28;19924;-59
2023/12/10 12:57:01;;;;;;;;;;;19.20;44.10;;;;;;5103738;28;19923;-59
2023/12/10 12:59:28;;;;;;;;;;;19.20;44.10;;;;;;5113892;28;19984;-59
2023/12/10 13:01:56;;;;;;;;;;;19.20;44.10;;;;;;5113380;28;19924;-59
2023/12/10 13:04:23;;;;;;;;;;;19.20;44.00;;;;;;5100385;28;20006;-59
2023/12/10 13:06:50;;;;;;;;;;;19.20;44.00;;;;;;5099010;28;19923;-59
2023/12/10 13:09:19;;;;;;;;;;;19.20;44.00;;;;;;5095478;28;19924;-59
2023/12/10 13:11:46;;;;;;;;;;;19.20;43.90;;;;;;5106763;28;19928;-59
2023/12/10 13:14:13;;;;;;;;;;;19.20;44.00;;;;;;5112330;28;19969;-59
2023/12/10 13:16:39;;;;;;;;;;;19.20;44.00;;;;;;5113087;28;19950;-59
2023/12/10 13:19:07;;;;;;;;;;;19.20;43.90;;;;;;5095214;28;19932;-59
2023/12/10 13:21:34;;;;;;;;;;;19.20;43.90;;;;;;5080152;28;19945;-59
2023/12/10 13:24:01;;;;;;;;;;;19.20;43.90;;;;;;5097558;28;19939;-59
2023/12/10 13:26:29;;;;;;;;;;;19.20;43.90;;;;;;5112066;27;19924;-59
2023/12/10 13:28:56;;;;;;;;;;;19.20;43.90;;;;;;5091448;28;19924;-59
2023/12/10 13:31:23;;;;;;;;;;;19.20;43.90;;;;;;5102872;28;19931;-59
2023/12/10 13:33:51;;;;;;;;;;;19.30;44.00;;;;;;5099425;28;19973;-59
2023/12/10 13:36:19;;;;;;;;;;;19.30;44.00;;;;;;5112598;28;19927;-59
2023/12/10 13:38:46;;;;;;;;;;;19.20;43.90;;;;;;5094481;28;20010;-59
2023/12/10 13:41:13;;;;;;;;;;;19.20;43.90;;;;;;5102990;28;19923;-59
2023/12/10 13:43:40;;;;;;;;;;;19.30;44.00;;;;;;5092082;28;19932;-59
2023/12/10 13:46:07;;;;;;;;;;;19.30;43.90;;;;;;5094380;28;19924;-59
2023/12/10 13:48:34;;;;;;;;;;;19.30;43.90;;;;;;5112611;28;19924;-59
2023/12/10 13:51:01;;;;;;;;;;;19.30;44.00;;;;;;5094005;28;19927;-59
2023/12/10 13:53:29;;;;;;;;;;;19.30;44.00;;;;;;5112358;28;19987;-59
2023/12/10 13:55:56;;;;;;;;;;;19.30;44.00;;;;;;5093915;28;19920;-59
2023/12/10 13:58:23;;;;;;;;;;;19.30;44.00;;;;;;5094588;28;19924;-58
2023/12/10 14:00:50;;;;;;;;;;;19.30;44.00;;;;;;5110490;28;19923;-59
2023/12/10 14:03:16;;;;;;;;;;;19.30;44.00;;;;;;5111906;28;19923;-59
2023/12/10 14:05:43;;;;;;;;;;;19.30;44.00;;;;;;5093928;28;19924;-59
2023/12/10 14:08:10;;;;;;;;;;;19.30;44.00;;;;;;5111730;28;19923;-59
2023/12/10 14:10:38;;;;;;;;;;;19.30;44.00;;;;;;5102332;28;19930;-59
2023/12/10 14:13:05;;;;;;;;;;;19.30;44.00;;;;;;5112221;28;19934;-59
2023/12/10 14:15:33;;;;;;;;;;;19.30;44.00;;;;;;5093840;28;19924;-59